Time;durP1;ratioP1;P1;durP2;ratioP2;P2;SDS_P1;SDS_P2;PMS_P1;PMS_P2;Temp;Humidity;BMP_temperature;BMP_pressure;BME280_temperature;BME280_humidity;BME280_pressure;Samples;Min_cycle;Max_cycle;Signal;HPM_P1;HPM_P2
2022/05/05 00:02:02;;;;;;;4.87;4.47;;;;;;;;;;5023975;28;21342;-53
2022/05/05 00:04:28;;;;;;;4.80;4.40;;;;;;;;;;5023171;28;20201;-53
2022/05/05 00:06:54;;;;;;;5.00;4.43;;;;;;;;;;5026220;28;20247;-54
2022/05/05 00:09:20;;;;;;;4.87;4.43;;;;;;;;;;5006922;28;20208;-53
2022/05/05 00:14:31;;;;;;;5.18;4.68;;;;;;;;;;5024638;28;20428;-53
2022/05/05 00:17:02;;;;;;;4.93;4.40;;;;;;;;;;5008109;28;20174;-54
2022/05/05 00:19:29;;;;;;;5.00;4.50;;;;;;;;;;5006546;28;20522;-53
2022/05/05 00:21:56;;;;;;;4.83;4.00;;;;;;;;;;5025775;28;20240;-54
2022/05/05 00:24:23;;;;;;;4.77;4.27;;;;;;;;;;5025675;28;20672;-54
2022/05/05 00:26:49;;;;;;;4.73;3.83;;;;;;;;;;5025014;28;20208;-52
2022/05/05 00:29:16;;;;;;;6.83;4.30;;;;;;;;;;5006963;28;20244;-54
2022/05/05 00:31:42;;;;;;;4.47;4.00;;;;;;;;;;5026846;28;20542;-53
2022/05/05 00:34:09;;;;;;;3.97;3.73;;;;;;;;;;5026219;28;20730;-53
2022/05/05 00:36:35;;;;;;;4.80;4.17;;;;;;;;;;5006337;28;20174;-53
2022/05/05 00:39:01;;;;;;;5.43;4.10;;;;;;;;;;5027315;28;20675;-52
2022/05/05 00:41:27;;;;;;;5.43;4.67;;;;;;;;;;4995035;28;20194;-53
2022/05/05 00:43:53;;;;;;;6.37;4.27;;;;;;;;;;5025822;28;20283;-53
2022/05/05 00:46:19;;;;;;;4.53;4.23;;;;;;;;;;5029198;28;20181;-53
2022/05/05 00:48:45;;;;;;;6.47;4.37;;;;;;;;;;5028079;28;20563;-53
2022/05/05 00:51:17;;;;;;;6.47;4.37;;;;;;;;;;5029230;28;20181;-54
2022/05/05 00:53:47;;;;;;;4.00;3.70;;;;;;;;;;5028270;28;20232;-53
2022/05/05 00:56:14;;;;;;;5.20;4.03;;;;;;;;;;5027093;28;20407;-54
2022/05/05 00:58:47;;;;;;;4.60;4.20;;;;;;;;;;5022422;28;20653;-53
2022/05/05 01:01:18;;;;;;;5.10;4.60;;;;;;;;;;5009753;28;20177;-53
2022/05/05 01:03:45;;;;;;;4.67;4.27;;;;;;;;;;5006874;28;20204;-54
2022/05/05 01:06:15;;;;;;;6.37;4.13;;;;;;;;;;5026027;28;20181;-54
2022/05/05 01:08:42;;;;;;;5.67;4.30;;;;;;;;;;5007073;28;20196;-54
2022/05/05 01:11:11;;;;;;;4.37;3.97;;;;;;;;;;5026982;28;20190;-54
2022/05/05 01:13:42;;;;;;;4.67;4.27;;;;;;;;;;5025484;28;20239;-53
2022/05/05 01:16:08;;;;;;;5.40;4.10;;;;;;;;;;5011178;28;20578;-53
2022/05/05 01:18:35;;;;;;;4.13;3.83;;;;;;;;;;5023571;28;20279;-53
2022/05/05 01:21:01;;;;;;;4.33;3.83;;;;;;;;;;5025842;28;21022;-53
2022/05/05 01:23:27;;;;;;;4.57;3.70;;;;;;;;;;5023868;28;20541;-54
2022/05/05 01:28:40;;;;;;;4.07;3.70;;;;;;;;;;5022621;28;20219;-54
2022/05/05 01:31:07;;;;;;;4.43;4.00;;;;;;;;;;5027121;28;20246;-54
2022/05/05 01:33:34;;;;;;;3.97;3.67;;;;;;;;;;5030500;28;20216;-53
2022/05/05 01:36:03;;;;;;;5.03;3.33;;;;;;;;;;5034141;28;20722;-54
2022/05/05 01:38:37;;;;;;;4.83;3.93;;;;;;;;;;5018861;28;20184;-54
2022/05/05 01:41:06;;;;;;;5.13;4.40;;;;;;;;;;5015165;28;20217;-54
2022/05/05 01:43:33;;;;;;;4.53;4.13;;;;;;;;;;5020730;28;20195;-54
2022/05/05 01:46:00;;;;;;;4.20;3.80;;;;;;;;;;5014817;28;20183;-54
2022/05/05 01:48:29;;;;;;;5.80;4.00;;;;;;;;;;5002754;28;20193;-53
2022/05/05 01:50:56;;;;;;;4.57;3.93;;;;;;;;;;5000673;28;20325;-53
2022/05/05 01:53:22;;;;;;;4.00;3.70;;;;;;;;;;5006945;28;20540;-54
2022/05/05 01:55:49;;;;;;;4.70;4.20;;;;;;;;;;5006945;28;20906;-53
2022/05/05 01:58:15;;;;;;;4.30;3.90;;;;;;;;;;5019356;28;20236;-54
2022/05/05 02:00:42;;;;;;;3.77;3.40;;;;;;;;;;5037268;28;20190;-54
2022/05/05 02:03:14;;;;;;;7.43;6.87;;;;;;;;;;5002685;28;20522;-53
2022/05/05 02:05:41;;;;;;;3.73;3.43;;;;;;;;;;5001124;28;20651;-54
2022/05/05 02:08:08;;;;;;;3.77;3.47;;;;;;;;;;5031691;28;20228;-54
2022/05/05 02:10:34;;;;;;;4.53;4.13;;;;;;;;;;5031999;28;20207;-54
2022/05/05 02:13:05;;;;;;;4.23;3.83;;;;;;;;;;5026998;28;20644;-54
2022/05/05 02:15:32;;;;;;;5.97;3.60;;;;;;;;;;5037701;28;20270;-54
2022/05/05 02:18:06;;;;;;;5.87;3.43;;;;;;;;;;5033421;28;20536;-54
2022/05/05 02:20:32;;;;;;;3.80;3.47;;;;;;;;;;5029972;28;20669;-54
2022/05/05 02:22:58;;;;;;;3.93;3.53;;;;;;;;;;5010044;28;20237;-54
2022/05/05 02:25:24;;;;;;;4.47;3.90;;;;;;;;;;5011948;28;20275;-54
2022/05/05 02:27:54;;;;;;;5.63;4.23;;;;;;;;;;5025915;28;20579;-54
2022/05/05 02:30:21;;;;;;;3.17;2.97;;;;;;;;;;5029700;28;20209;-54
2022/05/05 02:32:47;;;;;;;3.97;3.67;;;;;;;;;;5016084;28;20197;-54
2022/05/05 02:35:14;;;;;;;4.30;3.90;;;;;;;;;;5026789;28;20246;-54
2022/05/05 02:40:25;;;;;;;5.20;4.80;;;;;;;;;;5023667;28;20184;-54
2022/05/05 02:42:55;;;;;;;4.00;3.70;;;;;;;;;;5021008;28;20211;-54
2022/05/05 02:45:22;;;;;;;5.00;3.97;;;;;;;;;;5009924;28;20182;-54
2022/05/05 02:47:49;;;;;;;4.17;3.77;;;;;;;;;;5035109;28;20193;-54
2022/05/05 02:50:16;;;;;;;4.40;4.00;;;;;;;;;;5038539;28;20218;-54
2022/05/05 02:52:42;;;;;;;5.40;4.33;;;;;;;;;;5032757;28;20179;-53
2022/05/05 02:55:08;;;;;;;4.83;4.40;;;;;;;;;;5016189;28;20276;-53
2022/05/05 02:57:35;;;;;;;4.03;3.73;;;;;;;;;;5038272;28;20240;-54
2022/05/05 03:00:01;;;;;;;5.83;4.03;;;;;;;;;;5021151;28;20190;-54
2022/05/05 03:02:29;;;;;;;4.80;3.93;;;;;;;;;;5025099;28;20276;-53
2022/05/05 03:04:55;;;;;;;4.63;4.17;;;;;;;;;;5015061;28;20465;-54
2022/05/05 03:07:24;;;;;;;4.03;3.30;;;;;;;;;;5015617;28;20704;-53
2022/05/05 03:09:50;;;;;;;5.90;3.70;;;;;;;;;;5032622;28;20209;-53
2022/05/05 03:12:16;;;;;;;4.43;3.70;;;;;;;;;;5038106;28;20185;-53
2022/05/05 03:14:44;;;;;;;4.33;3.93;;;;;;;;;;5041536;28;20247;-53
2022/05/05 03:17:10;;;;;;;14.27;13.30;;;;;;;;;;5034774;28;20212;-53
2022/05/05 03:19:36;;;;;;;5.17;4.13;;;;;;;;;;5008074;28;20420;-54
2022/05/05 03:22:03;;;;;;;6.27;3.83;;;;;;;;;;5042961;28;20177;-53
2022/05/05 03:24:29;;;;;;;4.10;3.70;;;;;;;;;;5019501;28;20185;-53
2022/05/05 03:26:56;;;;;;;3.97;3.67;;;;;;;;;;5036968;28;20193;-53
2022/05/05 03:29:25;;;;;;;6.60;6.10;;;;;;;;;;5026967;28;20354;-53
2022/05/05 03:31:54;;;;;;;17.97;17.03;;;;;;;;;;5008081;28;20586;-53
2022/05/05 03:34:20;;;;;;;10.53;9.87;;;;;;;;;;5016356;28;20216;-54
2022/05/05 03:36:46;;;;;;;3.83;3.07;;;;;;;;;;5013148;28;20648;-53
2022/05/05 03:39:13;;;;;;;4.33;4.03;;;;;;;;;;5030144;28;20181;-53
2022/05/05 03:41:39;;;;;;;4.50;3.70;;;;;;;;;;5014943;28;20185;-53
2022/05/05 03:44:07;;;;;;;5.07;3.90;;;;;;;;;;5027000;28;20179;-53
2022/05/05 03:46:33;;;;;;;4.50;4.10;;;;;;;;;;4992022;28;20192;-53
2022/05/05 03:49:00;;;;;;;5.03;4.00;;;;;;;;;;5009231;28;20255;-54
2022/05/05 03:51:26;;;;;;;5.03;4.27;;;;;;;;;;4995609;28;20268;-54
2022/05/05 03:53:53;;;;;;;4.93;4.47;;;;;;;;;;5022237;28;20224;-53
2022/05/05 03:56:19;;;;;;;5.03;4.47;;;;;;;;;;5019924;28;20733;-54
2022/05/05 03:58:46;;;;;;;4.50;4.10;;;;;;;;;;5032441;28;20537;-53
2022/05/05 04:01:12;;;;;;;11.07;10.37;;;;;;;;;;5019891;28;20185;-53
2022/05/05 04:03:43;;;;;;;4.60;4.17;;;;;;;;;;5036575;28;20177;-54
2022/05/05 04:06:09;;;;;;;5.23;3.77;;;;;;;;;;5026674;28;20868;-54
2022/05/05 04:08:37;;;;;;;5.00;4.47;;;;;;;;;;5012370;28;20224;-53
2022/05/05 04:11:05;;;;;;;4.27;3.83;;;;;;;;;;5028822;28;20280;-53
2022/05/05 04:13:31;;;;;;;5.20;4.13;;;;;;;;;;5023371;28;20182;-53
2022/05/05 04:15:58;;;;;;;3.57;3.27;;;;;;;;;;5031097;28;20173;-53
2022/05/05 04:18:24;;;;;;;4.30;3.90;;;;;;;;;;5044156;28;20561;-54
2022/05/05 04:20:50;;;;;;;4.07;3.70;;;;;;;;;;5049305;28;20591;-53
2022/05/05 04:23:16;;;;;;;8.27;7.70;;;;;;;;;;5038725;28;20197;-53
2022/05/05 04:25:43;;;;;;;4.67;3.67;;;;;;;;;;5039577;28;20189;-54
2022/05/05 04:28:10;;;;;;;3.97;3.67;;;;;;;;;;5031332;28;20747;-53
2022/05/05 04:30:36;;;;;;;4.07;3.60;;;;;;;;;;5032053;28;20558;-54
2022/05/05 04:33:03;;;;;;;4.30;3.63;;;;;;;;;;5034742;28;20201;-54
2022/05/05 04:35:29;;;;;;;5.57;3.60;;;;;;;;;;5010563;28;20661;-53
2022/05/05 04:37:55;;;;;;;4.33;3.50;;;;;;;;;;5008954;28;20179;-53
2022/05/05 04:40:22;;;;;;;3.90;3.50;;;;;;;;;;5008814;28;20174;-53
2022/05/05 04:42:48;;;;;;;8.50;4.27;;;;;;;;;;4990594;28;20185;-54
2022/05/05 04:45:14;;;;;;;4.10;3.70;;;;;;;;;;4992164;28;20179;-54
2022/05/05 04:47:40;;;;;;;3.60;3.30;;;;;;;;;;5007055;28;20179;-54
2022/05/05 04:50:07;;;;;;;4.63;3.90;;;;;;;;;;5008545;28;20203;-54
2022/05/05 04:52:34;;;;;;;9.77;6.17;;;;;;;;;;5005372;28;20185;-54
2022/05/05 04:55:00;;;;;;;5.53;3.73;;;;;;;;;;4987914;28;20231;-54
2022/05/05 04:57:26;;;;;;;3.77;3.47;;;;;;;;;;5006147;28;20174;-54
2022/05/05 04:59:53;;;;;;;5.90;4.17;;;;;;;;;;5007480;28;20274;-53
2022/05/05 05:02:19;;;;;;;8.90;8.40;;;;;;;;;;5005760;28;20191;-54
2022/05/05 05:04:45;;;;;;;4.17;3.50;;;;;;;;;;4992243;28;20248;-53
2022/05/05 05:07:14;;;;;;;3.40;3.10;;;;;;;;;;5010034;28;20585;-54
2022/05/05 05:09:40;;;;;;;3.83;3.50;;;;;;;;;;4986604;28;20688;-54
2022/05/05 05:12:07;;;;;;;5.60;3.53;;;;;;;;;;5006585;28;20649;-54
2022/05/05 05:14:34;;;;;;;4.27;3.87;;;;;;;;;;5004277;28;20662;-53
2022/05/05 05:17:00;;;;;;;3.90;3.50;;;;;;;;;;5005520;28;20525;-54
2022/05/05 05:19:27;;;;;;;4.77;4.13;;;;;;;;;;5003296;28;20270;-54
2022/05/05 05:21:53;;;;;;;4.43;3.53;;;;;;;;;;4990188;28;20815;-53
2022/05/05 05:24:20;;;;;;;5.07;3.83;;;;;;;;;;4990046;28;20193;-54
2022/05/05 05:26:46;;;;;;;4.50;4.10;;;;;;;;;;5008005;28;20190;-54
2022/05/05 05:29:12;;;;;;;4.63;3.77;;;;;;;;;;4989191;28;20643;-54
2022/05/05 05:31:39;;;;;;;4.33;3.93;;;;;;;;;;5002629;28;20677;-53
2022/05/05 05:34:05;;;;;;;4.13;3.40;;;;;;;;;;5005948;28;20264;-53
2022/05/05 05:36:34;;;;;;;5.00;3.47;;;;;;;;;;4990264;28;20668;-53
2022/05/05 05:39:00;;;;;;;3.90;3.60;;;;;;;;;;4988034;28;20207;-53
2022/05/05 05:41:27;;;;;;;5.53;4.43;;;;;;;;;;5006068;28;20191;-53
2022/05/05 05:43:53;;;;;;;4.60;3.00;;;;;;;;;;4984067;28;20189;-54
2022/05/05 05:46:20;;;;;;;4.17;3.60;;;;;;;;;;4973265;28;20186;-54
2022/05/05 05:48:49;;;;;;;3.90;3.50;;;;;;;;;;4989240;28;20186;-53
2022/05/05 05:51:15;;;;;;;3.70;3.40;;;;;;;;;;4972378;28;20253;-54
2022/05/05 05:53:41;;;;;;;4.07;3.73;;;;;;;;;;4985812;28;20281;-54
2022/05/05 05:56:07;;;;;;;5.37;3.30;;;;;;;;;;5016171;28;20532;-54
2022/05/05 05:58:37;;;;;;;5.33;3.80;;;;;;;;;;4996939;28;20183;-53
2022/05/05 06:01:03;;;;;;;3.90;3.50;;;;;;;;;;4988227;28;20202;-54
2022/05/05 06:06:14;;;;;;;4.17;3.77;;;;;;;;;;5005838;28;20276;-54
2022/05/05 06:08:40;;;;;;;8.50;4.17;;;;;;;;;;5000945;28;20186;-52
2022/05/05 06:11:06;;;;;;;3.73;3.43;;;;;;;;;;4986340;28;20202;-54
2022/05/05 06:13:32;;;;;;;4.83;3.67;;;;;;;;;;4989183;28;20539;-53
2022/05/05 06:15:59;;;;;;;4.77;4.27;;;;;;;;;;5006105;28;20608;-53
2022/05/05 06:18:25;;;;;;;5.13;4.60;;;;;;;;;;4995332;28;20584;-53
2022/05/05 06:20:53;;;;;;;4.82;3.90;;;;;;;;;;4984045;28;20924;-54
2022/05/05 06:23:19;;;;;;;4.60;3.97;;;;;;;;;;4998523;28;20592;-54
2022/05/05 06:25:46;;;;;;;5.20;3.87;;;;;;;;;;4994935;28;20180;-54
2022/05/05 06:28:12;;;;;;;4.43;3.80;;;;;;;;;;5004374;28;20531;-54
2022/05/05 06:30:38;;;;;;;6.40;4.47;;;;;;;;;;4988584;28;20680;-53
2022/05/05 06:33:05;;;;;;;5.97;4.17;;;;;;;;;;4985744;28;20291;-53
2022/05/05 06:35:31;;;;;;;4.00;3.60;;;;;;;;;;5026018;28;20177;-53
2022/05/05 06:37:57;;;;;;;4.10;3.70;;;;;;;;;;5025192;28;20184;-54
2022/05/05 06:40:24;;;;;;;6.27;4.10;;;;;;;;;;5004273;28;20656;-53
2022/05/05 06:42:51;;;;;;;4.37;3.43;;;;;;;;;;5009319;28;20189;-54
2022/05/05 06:45:17;;;;;;;5.20;4.23;;;;;;;;;;4991382;28;20197;-54
2022/05/05 06:47:43;;;;;;;7.57;4.23;;;;;;;;;;5027327;28;20629;-53
2022/05/05 06:50:10;;;;;;;5.17;4.70;;;;;;;;;;5024100;28;20239;-53
2022/05/05 06:52:36;;;;;;;5.33;4.13;;;;;;;;;;5027068;28;20476;-53
2022/05/05 06:55:09;;;;;;;5.20;4.03;;;;;;;;;;5027277;28;20177;-53
2022/05/05 06:57:35;;;;;;;4.67;4.27;;;;;;;;;;5025127;28;20174;-53
2022/05/05 07:00:04;;;;;;;4.90;3.90;;;;;;;;;;5024312;28;20193;-53
2022/05/05 07:02:30;;;;;;;5.00;4.50;;;;;;;;;;5005670;28;20284;-53
2022/05/05 07:07:47;;;;;;;8.40;4.80;;;;;;;;;;5024434;28;20236;-53
2022/05/05 07:13:02;;;;;;;5.17;4.33;;;;;;;;;;5018742;28;20219;-53
2022/05/05 07:15:31;;;;;;;4.43;4.03;;;;;;;;;;5025369;28;20181;-53
2022/05/05 07:17:57;;;;;;;5.97;4.63;;;;;;;;;;4989594;28;20186;-53
2022/05/05 07:20:24;;;;;;;4.83;4.00;;;;;;;;;;5023118;28;20554;-53
2022/05/05 07:22:51;;;;;;;4.80;4.27;;;;;;;;;;5022623;28;20652;-53
2022/05/05 07:25:18;;;;;;;5.70;4.07;;;;;;;;;;5024178;28;20258;-53
2022/05/05 07:27:45;;;;;;;6.00;4.73;;;;;;;;;;5025064;28;20640;-53
2022/05/05 07:30:14;;;;;;;6.90;4.37;;;;;;;;;;5005237;28;20205;-53
2022/05/05 07:32:41;;;;;;;4.83;4.37;;;;;;;;;;5024669;28;20284;-53
2022/05/05 07:35:07;;;;;;;6.33;4.97;;;;;;;;;;5023075;28;20228;-52
2022/05/05 07:37:33;;;;;;;5.10;4.53;;;;;;;;;;5025122;28;20196;-53
2022/05/05 07:39:59;;;;;;;5.70;4.80;;;;;;;;;;5007568;28;20182;-53
2022/05/05 07:42:25;;;;;;;6.37;4.97;;;;;;;;;;5031693;28;20250;-54
2022/05/05 07:44:54;;;;;;;7.73;4.80;;;;;;;;;;5031346;28;20280;-53
2022/05/05 07:47:20;;;;;;;6.67;5.47;;;;;;;;;;5013403;28;21018;-54
2022/05/05 07:49:46;;;;;;;6.77;5.07;;;;;;;;;;5030930;28;20200;-54
2022/05/05 07:52:12;;;;;;;7.80;5.67;;;;;;;;;;5030984;28;20185;-53
2022/05/05 07:54:38;;;;;;;7.75;5.75;;;;;;;;;;5028802;28;20433;-53
2022/05/05 07:57:06;;;;;;;8.87;6.33;;;;;;;;;;5033264;28;20184;-53
2022/05/05 07:59:32;;;;;;;6.40;4.70;;;;;;;;;;5030361;28;20531;-54
2022/05/05 08:01:58;;;;;;;5.37;4.93;;;;;;;;;;5032917;28;20648;-53
2022/05/05 08:04:24;;;;;;;11.57;4.80;;;;;;;;;;5029470;28;20184;-53
2022/05/05 08:06:50;;;;;;;5.20;4.70;;;;;;;;;;5030669;28;20669;-53
2022/05/05 08:09:16;;;;;;;5.10;4.70;;;;;;;;;;5031310;28;20186;-53
2022/05/05 08:11:43;;;;;;;5.83;4.63;;;;;;;;;;5012869;28;20208;-53
2022/05/05 08:14:11;;;;;;;5.43;4.30;;;;;;;;;;5029663;28;20645;-53
2022/05/05 08:16:39;;;;;;;5.43;4.90;;;;;;;;;;5031976;28;20633;-53
2022/05/05 08:19:06;;;;;;;4.83;4.43;;;;;;;;;;5013519;28;20180;-53
2022/05/05 08:21:33;;;;;;;5.07;4.63;;;;;;;;;;5032253;28;20668;-53
2022/05/05 08:29:28;;;;;;;5.23;4.33;;;;;;;;;;5029871;28;20244;-53
2022/05/05 08:31:55;;;;;;;6.43;4.60;;;;;;;;;;5029105;28;20186;-53
2022/05/05 08:34:21;;;;;;;4.90;4.30;;;;;;;;;;5027588;28;20473;-53
2022/05/05 08:36:47;;;;;;;6.53;4.50;;;;;;;;;;5032258;28;20178;-53
2022/05/05 08:39:13;;;;;;;7.30;5.03;;;;;;;;;;5030017;28;20700;-53
2022/05/05 08:41:40;;;;;;;5.17;4.70;;;;;;;;;;5029958;28;20213;-53
2022/05/05 08:44:06;;;;;;;7.50;4.33;;;;;;;;;;5030190;28;20639;-54
2022/05/05 08:46:33;;;;;;;5.77;4.50;;;;;;;;;;5028569;28;20186;-53
2022/05/05 08:49:03;;;;;;;5.13;4.37;;;;;;;;;;5011767;28;20624;-54
2022/05/05 08:51:35;;;;;;;4.87;4.37;;;;;;;;;;5029435;28;20645;-54
2022/05/05 08:54:07;;;;;;;8.03;4.53;;;;;;;;;;5003999;28;20190;-54
2022/05/05 08:56:33;;;;;;;4.90;4.40;;;;;;;;;;5023811;28;20182;-54
2022/05/05 08:58:59;;;;;;;6.90;4.37;;;;;;;;;;5027418;28;20186;-53
2022/05/05 09:01:36;;;;;;;4.40;4.00;;;;;;;;;;5028540;28;20275;-53
2022/05/05 09:04:04;;;;;;;5.00;4.50;;;;;;;;;;5024426;28;20180;-54
2022/05/05 09:06:41;;;;;;;5.50;5.00;;;;;;;;;;5008681;28;20614;-53
2022/05/05 09:09:28;;;;;;;5.87;4.50;;;;;;;;;;5009155;28;20241;-53
2022/05/05 09:12:12;;;;;;;6.97;5.20;;;;;;;;;;5008535;28;20247;-54
2022/05/05 09:14:40;;;;;;;8.43;5.60;;;;;;;;;;5008614;28;20181;-57
2022/05/05 09:17:07;;;;;;;6.33;5.03;;;;;;;;;;5023865;28;20193;-56
2022/05/05 09:19:37;;;;;;;6.13;5.53;;;;;;;;;;5004415;28;20221;-56
2022/05/05 09:22:05;;;;;;;7.10;5.30;;;;;;;;;;5026221;28;20265;-56
2022/05/05 09:24:40;;;;;;;7.03;5.43;;;;;;;;;;5024074;28;20197;-56
2022/05/05 09:27:16;;;;;;;7.33;5.57;;;;;;;;;;5008690;28;20173;-56
2022/05/05 09:29:42;;;;;;;7.80;5.47;;;;;;;;;;5026061;28;20209;-56
2022/05/05 09:32:12;;;;;;;8.77;5.50;;;;;;;;;;5009044;28;20178;-55
2022/05/05 09:34:39;;;;;;;8.20;5.33;;;;;;;;;;5026336;28;20287;-56
2022/05/05 09:37:21;;;;;;;6.53;5.80;;;;;;;;;;5029101;28;20212;-56
2022/05/05 09:39:53;;;;;;;9.93;6.40;;;;;;;;;;5016710;28;20224;-56
2022/05/05 09:42:38;;;;;;;10.23;6.20;;;;;;;;;;5010571;28;20182;-56
2022/05/05 09:45:18;;;;;;;10.10;6.77;;;;;;;;;;5010665;28;20174;-57
2022/05/05 09:47:49;;;;;;;9.93;5.90;;;;;;;;;;5010618;28;20182;-56
2022/05/05 09:50:20;;;;;;;7.50;5.90;;;;;;;;;;5010664;28;20221;-56
2022/05/05 09:58:19;;;;;;;7.90;6.03;;;;;;;;;;5029173;28;20185;-56
2022/05/05 10:00:58;;;;;;;8.87;6.90;;;;;;;;;;5011841;28;20177;-56
2022/05/05 10:06:16;;;;;;;9.07;6.67;;;;;;;;;;5029893;28;20561;-56
2022/05/05 10:08:45;;;;;;;10.53;7.00;;;;;;;;;;4993437;28;20174;-56
2022/05/05 10:11:14;;;;;;;10.43;6.77;;;;;;;;;;5024575;28;20200;-56
2022/05/05 10:13:40;;;;;;;8.23;6.53;;;;;;;;;;5028855;28;20186;-56
2022/05/05 10:16:08;;;;;;;7.83;6.90;;;;;;;;;;5028563;28;20182;-56
2022/05/05 10:18:39;;;;;;;12.77;6.63;;;;;;;;;;5010135;28;20616;-56
2022/05/05 10:21:10;;;;;;;9.13;6.53;;;;;;;;;;5028516;28;20692;-56
2022/05/05 10:24:09;;;;;;;9.67;7.03;;;;;;;;;;5010033;28;20185;-56
2022/05/05 10:26:36;;;;;;;9.83;6.60;;;;;;;;;;4968470;28;20216;-57
2022/05/05 10:29:02;;;;;;;11.73;6.93;;;;;;;;;;5028455;28;20186;-56
2022/05/05 10:31:31;;;;;;;11.30;7.20;;;;;;;;;;5028882;28;20267;-56
2022/05/05 10:33:58;;;;;;;10.33;7.67;;;;;;;;;;5026892;28;20272;-56
2022/05/05 10:36:25;;;;;;;11.30;7.27;;;;;;;;;;5026399;28;20257;-57
2022/05/05 10:38:52;;;;;;;8.77;6.77;;;;;;;;;;5008167;28;20196;-57
2022/05/05 10:41:39;;;;;;;9.73;6.60;;;;;;;;;;5026692;28;20271;-56
2022/05/05 10:44:14;;;;;;;8.57;6.57;;;;;;;;;;5004274;28;20186;-57
2022/05/05 10:46:57;;;;;;;9.63;6.47;;;;;;;;;;5007344;28;20203;-56
2022/05/05 10:49:37;;;;;;;9.13;7.03;;;;;;;;;;5025980;28;20197;-56
2022/05/05 10:52:12;;;;;;;10.60;7.60;;;;;;;;;;5002821;28;20235;-57
2022/05/05 10:54:49;;;;;;;10.00;7.20;;;;;;;;;;5003069;28;20228;-57
2022/05/05 10:57:29;;;;;;;10.27;7.13;;;;;;;;;;5009379;28;20525;-57
2022/05/05 11:00:11;;;;;;;11.27;7.43;;;;;;;;;;5027353;28;20614;-56
2022/05/05 11:02:38;;;;;;;11.07;6.77;;;;;;;;;;4999013;28;20184;-57
2022/05/05 11:05:35;;;;;;;10.30;7.40;;;;;;;;;;5003713;28;20190;-57
2022/05/05 11:08:08;;;;;;;9.80;7.57;;;;;;;;;;5003045;28;20185;-57
2022/05/05 11:10:47;;;;;;;12.43;7.77;;;;;;;;;;5020613;28;20202;-57
2022/05/05 11:13:33;;;;;;;11.57;6.80;;;;;;;;;;5019495;28;20186;-57
2022/05/05 11:22:09;;;;;;;10.73;7.60;;;;;;;;;;5018421;28;20432;-56
2022/05/05 11:24:36;;;;;;;9.40;7.63;;;;;;;;;;5025062;28;20221;-56
2022/05/05 11:27:02;;;;;;;10.20;7.07;;;;;;;;;;5009598;28;20182;-56
2022/05/05 11:29:30;;;;;;;9.30;6.67;;;;;;;;;;5008415;28;20256;-56
2022/05/05 11:31:57;;;;;;;8.17;7.17;;;;;;;;;;5023249;28;20195;-57
2022/05/05 11:34:36;;;;;;;10.63;7.87;;;;;;;;;;5017629;28;20217;-58
2022/05/05 11:37:06;;;;;;;14.37;8.73;;;;;;;;;;5019215;28;20636;-57
2022/05/05 11:39:34;;;;;;;11.63;8.00;;;;;;;;;;5001151;28;20233;-57
2022/05/05 11:42:04;;;;;;;10.83;9.00;;;;;;;;;;5003167;28;20264;-57
2022/05/05 11:44:32;;;;;;;9.77;8.20;;;;;;;;;;5019861;28;20216;-58
2022/05/05 11:47:08;;;;;;;13.00;8.53;;;;;;;;;;5018962;28;20195;-57
2022/05/05 11:49:35;;;;;;;10.97;8.57;;;;;;;;;;4999355;28;20616;-57
2022/05/05 11:52:01;;;;;;;9.80;8.13;;;;;;;;;;5001665;28;21915;-57
2022/05/05 11:54:30;;;;;;;12.90;8.97;;;;;;;;;;5010198;28;20188;-58
2022/05/05 11:56:56;;;;;;;11.00;9.47;;;;;;;;;;5002466;28;20193;-58
2022/05/05 12:02:22;;;;;;;12.47;11.17;;;;;;;;;;5024266;28;20652;-57
2022/05/05 12:04:51;;;;;;;10.80;7.87;;;;;;;;;;5019477;28;20220;-57
2022/05/05 12:07:23;;;;;;;10.13;8.10;;;;;;;;;;5010458;28;20185;-57
2022/05/05 12:09:53;;;;;;;13.17;9.10;;;;;;;;;;5007618;28;20584;-57
2022/05/05 12:12:20;;;;;;;10.53;8.43;;;;;;;;;;5006000;28;20591;-57
2022/05/05 12:14:51;;;;;;;12.90;8.47;;;;;;;;;;5019206;28;20233;-57
2022/05/05 12:17:25;;;;;;;9.27;7.60;;;;;;;;;;4998443;28;20741;-57
2022/05/05 12:19:52;;;;;;;9.60;8.60;;;;;;;;;;4997428;28;20221;-57
2022/05/05 12:22:29;;;;;;;12.13;11.00;;;;;;;;;;4998657;28;20194;-58
2022/05/05 12:25:01;;;;;;;12.27;8.10;;;;;;;;;;5000263;28;20185;-58
2022/05/05 12:27:33;;;;;;;8.87;8.00;;;;;;;;;;5000131;28;20621;-57
2022/05/05 12:30:01;;;;;;;9.43;8.43;;;;;;;;;;5005288;28;20287;-58
2022/05/05 12:32:28;;;;;;;9.90;7.40;;;;;;;;;;5022043;28;20299;-57
2022/05/05 12:35:04;;;;;;;9.10;7.77;;;;;;;;;;5020701;28;20634;-57
2022/05/05 12:37:30;;;;;;;11.63;7.87;;;;;;;;;;5022125;28;20181;-57
2022/05/05 12:40:06;;;;;;;8.13;7.23;;;;;;;;;;5023545;28;20181;-57
2022/05/05 12:43:02;;;;;;;7.97;7.17;;;;;;;;;;5022427;28;20291;-58
2022/05/05 12:45:31;;;;;;;8.93;7.30;;;;;;;;;;4991855;28;20202;-57
2022/05/05 12:47:59;;;;;;;9.60;6.53;;;;;;;;;;5020414;28;20184;-57
2022/05/05 12:50:33;;;;;;;8.20;6.30;;;;;;;;;;5003487;28;20616;-57
2022/05/05 13:01:41;;;;;;;6.37;5.77;;;;;;;;;;5022576;28;20190;-58
2022/05/05 13:04:10;;;;;;;7.63;6.80;;;;;;;;;;5016448;28;20187;-58
2022/05/05 13:06:38;;;;;;;8.30;6.67;;;;;;;;;;5022203;28;20293;-57
2022/05/05 13:09:08;;;;;;;8.00;6.07;;;;;;;;;;4985376;28;20190;-57
2022/05/05 13:11:40;;;;;;;7.17;6.47;;;;;;;;;;5002257;28;20299;-56
2022/05/05 13:14:07;;;;;;;6.90;6.20;;;;;;;;;;5023466;28;20181;-57
2022/05/05 13:16:37;;;;;;;7.37;5.87;;;;;;;;;;5022393;28;20196;-57
2022/05/05 13:19:10;;;;;;;8.00;6.70;;;;;;;;;;5001801;28;20280;-57
2022/05/05 13:21:36;;;;;;;7.10;5.33;;;;;;;;;;5025953;28;20183;-57
2022/05/05 13:24:02;;;;;;;7.70;6.67;;;;;;;;;;5015570;28;20730;-57
2022/05/05 13:26:29;;;;;;;7.67;5.60;;;;;;;;;;5019696;28;20198;-57
2022/05/05 13:29:00;;;;;;;6.00;5.37;;;;;;;;;;5021089;28;20204;-57
2022/05/05 13:31:26;;;;;;;7.80;6.10;;;;;;;;;;5003528;28;20239;-56
2022/05/05 13:33:52;;;;;;;9.37;6.80;;;;;;;;;;5000178;28;20226;-56
2022/05/05 13:36:22;;;;;;;5.90;5.40;;;;;;;;;;5021080;28;20210;-56
2022/05/05 13:38:48;;;;;;;6.83;6.07;;;;;;;;;;5022121;28;20299;-56
2022/05/05 13:41:14;;;;;;;8.43;6.23;;;;;;;;;;5021440;28;20193;-57
2022/05/05 13:43:41;;;;;;;6.27;4.70;;;;;;;;;;5021061;28;20263;-57
2022/05/05 13:46:07;;;;;;;6.70;5.63;;;;;;;;;;5022353;28;20547;-57
2022/05/05 13:48:37;;;;;;;7.27;5.70;;;;;;;;;;5000868;28;20209;-56
2022/05/05 13:51:04;;;;;;;5.70;5.10;;;;;;;;;;4984073;28;20224;-56
2022/05/05 13:53:31;;;;;;;7.30;6.60;;;;;;;;;;4999121;28;20599;-57
2022/05/05 13:55:57;;;;;;;6.60;6.00;;;;;;;;;;5020215;28;20178;-56
2022/05/05 13:58:24;;;;;;;6.10;5.20;;;;;;;;;;5002502;28;20644;-56
2022/05/05 14:00:51;;;;;;;5.63;5.13;;;;;;;;;;5022230;28;20189;-57
2022/05/05 14:03:17;;;;;;;10.87;10.10;;;;;;;;;;4998354;28;20205;-56
2022/05/05 14:05:46;;;;;;;7.60;7.00;;;;;;;;;;5020437;28;20732;-56
2022/05/05 14:16:47;;;;;;;5.93;5.33;;;;;;;;;;5013827;28;20713;-57
2022/05/05 14:19:16;;;;;;;8.50;5.77;;;;;;;;;;5019723;28;20268;-57
2022/05/05 14:21:42;;;;;;;6.50;5.00;;;;;;;;;;5020224;28;20193;-57
2022/05/05 14:24:08;;;;;;;8.77;5.30;;;;;;;;;;5015245;28;20264;-58
2022/05/05 14:26:35;;;;;;;7.77;6.80;;;;;;;;;;5015814;28;20193;-58
2022/05/05 14:29:01;;;;;;;6.60;5.20;;;;;;;;;;5017668;28;20186;-57
2022/05/05 14:31:27;;;;;;;8.13;6.43;;;;;;;;;;5019738;28;20625;-58
2022/05/05 14:33:54;;;;;;;6.10;5.53;;;;;;;;;;5019402;28;20287;-58
2022/05/05 14:36:20;;;;;;;6.17;5.40;;;;;;;;;;5002413;28;20193;-58
2022/05/05 14:38:46;;;;;;;5.90;5.37;;;;;;;;;;5020963;28;20243;-57
2022/05/05 14:41:14;;;;;;;6.50;5.90;;;;;;;;;;5024690;28;20190;-57
2022/05/05 14:43:46;;;;;;;6.43;5.83;;;;;;;;;;5023421;28;20264;-57
2022/05/05 14:46:16;;;;;;;6.20;5.60;;;;;;;;;;5005463;28;20640;-56
2022/05/05 14:48:42;;;;;;;6.53;5.77;;;;;;;;;;5004550;28;20236;-56
2022/05/05 14:51:12;;;;;;;6.43;5.83;;;;;;;;;;5024131;28;20256;-57
2022/05/05 14:53:38;;;;;;;7.37;6.00;;;;;;;;;;5006978;28;20189;-55
2022/05/05 14:56:05;;;;;;;8.10;6.80;;;;;;;;;;5022565;28;20215;-55
2022/05/05 14:58:31;;;;;;;8.57;6.10;;;;;;;;;;5009205;28;20595;-55
2022/05/05 15:00:57;;;;;;;7.97;6.50;;;;;;;;;;5024482;28;20280;-56
2022/05/05 15:03:24;;;;;;;7.67;6.50;;;;;;;;;;5022356;28;20194;-55
2022/05/05 15:05:50;;;;;;;8.90;6.33;;;;;;;;;;5025765;28;20185;-55
2022/05/05 15:08:17;;;;;;;14.20;7.17;;;;;;;;;;5021818;28;20204;-56
2022/05/05 15:10:47;;;;;;;7.47;6.73;;;;;;;;;;5026424;28;20204;-56
2022/05/05 15:13:13;;;;;;;9.13;7.23;;;;;;;;;;5006410;28;20198;-56
2022/05/05 15:15:39;;;;;;;8.60;7.80;;;;;;;;;;5024894;28;20242;-56
2022/05/05 15:18:06;;;;;;;20.20;18.07;;;;;;;;;;5005931;28;20183;-55
2022/05/05 15:20:35;;;;;;;12.63;10.30;;;;;;;;;;5003899;28;20179;-55
2022/05/05 15:23:02;;;;;;;13.23;10.63;;;;;;;;;;4991656;28;20595;-55
2022/05/05 15:25:30;;;;;;;10.50;9.37;;;;;;;;;;5023735;28;20192;-55
2022/05/05 15:27:56;;;;;;;8.83;7.93;;;;;;;;;;5001811;28;20186;-56
2022/05/05 15:30:22;;;;;;;11.83;7.10;;;;;;;;;;5006803;28;20698;-55
2022/05/05 15:32:49;;;;;;;13.77;7.60;;;;;;;;;;5004222;28;20213;-55
2022/05/05 15:35:15;;;;;;;8.23;7.43;;;;;;;;;;5023341;28;20243;-56
2022/05/05 15:37:41;;;;;;;7.57;6.47;;;;;;;;;;5024415;28;20524;-55
2022/05/05 15:40:09;;;;;;;6.43;5.83;;;;;;;;;;5006223;28;20641;-55
2022/05/05 15:42:36;;;;;;;9.77;5.97;;;;;;;;;;5023580;28;20268;-55
2022/05/05 15:45:02;;;;;;;6.80;6.20;;;;;;;;;;5024894;28;20239;-55